Time;durP1;ratioP1;P1;durP2;ratioP2;P2;SDS_P1;SDS_P2;PMS_P1;PMS_P2;Temp;Humidity;BMP_temperature;BMP_pressure;BME280_temperature;BME280_humidity;BME280_pressure;Samples;Min_cycle;Max_cycle;Signal;HPM_P1;HPM_P2
2024/04/14 05:27:12;;;;;;;5.57;1.95;;;;;;;;;;2221567;26;20562;-61
2024/04/14 05:34:18;;;;;;;9.13;2.80;;;;;;;;;;2274344;25;20610;-62
2024/04/14 05:39:30;;;;;;;7.88;2.70;;;;;;;;;;2273903;25;20599;-62
2024/04/14 05:44:02;;;;;;;3.15;1.73;;;;;;;;;;2223017;26;20559;-61
2024/04/14 06:05:22;;;;;;;5.35;1.90;;;;;;;14.85;72.99;97108.81;2222093;26;20579;-62
2024/04/14 06:08:37;;;;;;;7.07;2.17;;;;;;;15.07;71.83;97114.63;2254050;26;20560;-63
2024/04/14 06:11:50;;;;;;;6.38;1.90;;;;;;;15.21;72.60;97114.75;2209553;26;20583;-62
2024/04/14 06:21:41;;;;;;;4.45;1.98;;;;;;;15.49;70.93;97118.41;2226763;25;21346;-62
2024/04/14 06:24:57;;;;;;;4.95;1.95;;;;;;;15.59;70.00;97126.66;2225492;26;20618;-62
2024/04/14 06:28:02;;;;;;;5.35;1.98;;;;;;;15.76;69.70;97129.16;2247266;26;21201;-62
2024/04/14 06:31:04;;;;;;;6.38;2.25;;;;;;;15.69;69.72;97127.81;2224202;26;20611;-63
2024/04/14 06:34:19;;;;;;;4.00;2.10;;;;;;;15.88;69.10;97116.25;2239103;26;20584;-62
2024/04/14 06:35:20;;;;;;;6.28;2.50;;;;;;;15.95;69.77;97118.44;2238988;26;20219;-62
2024/04/14 06:38:09;;;;;;;6.00;2.10;;;;;;;15.95;68.95;97105.25;2237342;26;21000;-62
2024/04/14 06:39:10;;;;;;;4.90;2.20;;;;;;;16.09;68.85;97122.03;2232907;26;20262;-62
2024/04/14 06:41:53;;;;;;;5.03;2.25;;;;;;;15.89;69.77;97123.22;2238360;25;20618;-62
2024/04/14 06:42:54;;;;;;;5.18;2.03;;;;;;;16.04;69.90;97124.94;2233547;26;20215;-62
2024/04/14 06:43:56;;;;;;;5.57;2.67;;;;;;;16.24;69.06;97117.63;2236600;26;20324;-62
2024/04/14 06:46:36;;;;;;;11.45;2.55;;;;;;;16.47;68.62;97122.34;2226448;26;20566;-63
2024/04/14 06:47:38;;;;;;;7.65;2.35;;;;;;;16.57;68.21;97127.06;2222136;26;20219;-61
2024/04/14 06:48:40;;;;;;;5.40;2.03;;;;;;;16.60;67.68;97124.25;2218565;26;20251;-61
2024/04/14 06:51:11;;;;;;;6.30;2.00;;;;;;;16.68;67.83;97121.97;2224017;26;20566;-61
2024/04/14 06:52:13;;;;;;;8.88;1.63;;;;;;;16.64;67.98;97120.47;2218477;26;20780;-61
2024/04/14 06:53:14;;;;;;;5.80;2.17;;;;;;;16.75;68.04;97123.28;2224282;26;20227;-61
2024/04/14 06:54:16;;;;;;;5.57;2.13;;;;;;;16.94;67.90;97119.56;2222733;26;20220;-61
2024/04/14 06:55:18;;;;;;;5.57;2.15;;;;;;;16.98;67.73;97121.88;2216220;26;20255;-61
2024/04/14 06:56:20;;;;;;;5.70;2.47;;;;;;;17.11;67.63;97119.31;2219155;26;20737;-61
2024/04/14 06:57:22;;;;;;;5.75;2.35;;;;;;;17.16;67.67;97121.66;2221922;26;20258;-62
2024/04/14 06:58:23;;;;;;;6.85;2.63;;;;;;;17.25;67.51;97121.06;2220944;26;20243;-62
2024/04/14 06:59:25;;;;;;;8.63;2.10;;;;;;;17.14;68.35;97113.84;2220281;26;20223;-61
2024/04/14 07:00:26;;;;;;;7.38;2.03;;;;;;;17.53;67.41;97121.09;2222079;26;20720;-62
2024/04/14 07:01:28;;;;;;;3.92;2.08;;;;;;;17.84;67.40;97121.69;2218925;26;20338;-61
2024/04/14 07:02:29;;;;;;;15.18;1.88;;;;;;;17.86;67.71;97115.34;2219211;26;20218;-62
2024/04/14 07:03:31;;;;;;;13.07;2.35;;;;;;;17.92;67.03;97116.75;2224823;26;20226;-62
2024/04/14 07:04:33;;;;;;;4.63;2.20;;;;;;;18.08;66.46;97122.72;2222659;26;20323;-62
2024/04/14 07:05:35;;;;;;;8.80;2.05;;;;;;;18.06;65.71;97114.06;2218648;26;20487;-62
2024/04/14 07:06:36;;;;;;;4.63;2.70;;;;;;;18.23;65.84;97109.41;2224763;26;20596;-62
2024/04/14 07:07:38;;;;;;;3.75;2.13;;;;;;;18.44;65.46;97110.59;2224248;26;20298;-61
2024/04/14 07:08:40;;;;;;;9.35;2.78;;;;;;;18.63;64.77;97097.88;2222192;26;20219;-62
2024/04/14 07:09:41;;;;;;;6.53;2.03;;;;;;;19.03;64.19;97116.25;2224337;26;20224;-62
2024/04/14 07:10:43;;;;;;;4.03;1.90;;;;;;;19.04;64.06;97108.19;2222066;26;20261;-63
2024/04/14 07:11:45;;;;;;;3.90;1.80;;;;;;;19.07;63.64;97113.28;2222458;26;20769;-63
2024/04/14 07:12:47;;;;;;;3.50;1.90;;;;;;;19.31;63.23;97119.56;2221971;26;20313;-63
2024/04/14 07:13:48;;;;;;;4.82;2.22;;;;;;;19.35;63.17;97113.06;2215153;26;20255;-63
2024/04/14 07:14:51;;;;;;;4.93;1.95;;;;;;;19.34;63.09;97112.25;2229342;26;20208;-63
2024/04/14 07:15:53;;;;;;;3.67;1.92;;;;;;;19.44;63.04;97107.13;2223704;26;20258;-63
2024/04/14 07:16:55;;;;;;;7.97;3.03;;;;;;;19.67;63.00;97105.41;2216313;26;20251;-62
2024/04/14 07:17:56;;;;;;;4.80;2.38;;;;;;;19.74;63.11;97108.44;2218750;26;20220;-62
2024/04/14 07:18:58;;;;;;;4.15;1.80;;;;;;;19.71;62.95;97106.03;2225081;26;20287;-63
2024/04/14 07:20:00;;;;;;;3.67;2.03;;;;;;;19.79;62.43;97108.94;2223411;26;20278;-63
2024/04/14 07:21:03;;;;;;;5.75;2.17;;;;;;;19.55;63.99;97115.13;2219918;26;20254;-62
2024/04/14 07:22:04;;;;;;;2.95;1.73;;;;;;;19.67;64.71;97113.38;2218409;26;20258;-62
2024/04/14 07:23:07;;;;;;;4.32;1.90;;;;;;;20.48;61.90;97115.28;2219928;26;20358;-62
2024/04/14 07:24:08;;;;;;;4.40;1.60;;;;;;;20.53;62.48;97099.84;2223029;26;20580;-62
2024/04/14 07:25:10;;;;;;;3.95;1.70;;;;;;;20.93;61.82;97120.63;2220475;26;20215;-62
2024/04/14 07:26:12;;;;;;;2.80;1.90;;;;;;;20.86;60.62;97120.28;2220566;26;20235;-62
2024/04/14 07:27:14;;;;;;;2.80;1.45;;;;;;;20.74;61.23;97117.75;2219945;26;20374;-62
2024/04/14 07:28:15;;;;;;;9.63;2.47;;;;;;;20.97;60.73;97116.75;2221414;26;20219;-63
2024/04/14 07:29:17;;;;;;;4.50;1.98;;;;;;;21.29;60.80;97113.38;2221285;26;20216;-64
2024/04/14 07:30:20;;;;;;;5.75;1.55;;;;;;;21.67;59.78;97113.88;2218680;26;21212;-66
2024/04/14 07:31:22;;;;;;;8.10;1.80;;;;;;;22.00;59.06;97114.69;2221900;26;20251;-63
2024/04/14 07:32:25;;;;;;;7.75;1.90;;;;;;;21.86;58.76;97118.50;2219620;26;20545;-64
2024/04/14 07:33:27;;;;;;;5.90;1.60;;;;;;;21.83;58.11;97119.59;2222891;26;20220;-64
2024/04/14 07:34:29;;;;;;;5.97;1.70;;;;;;;21.95;59.02;97122.22;2218301;26;20219;-64
2024/04/14 07:35:30;;;;;;;6.30;1.83;;;;;;;22.08;58.38;97109.59;2219166;26;20780;-64
2024/04/14 07:36:32;;;;;;;4.97;1.45;;;;;;;22.33;58.03;97115.47;2218566;26;20387;-64
2024/04/14 07:37:33;;;;;;;2.28;1.17;;;;;;;22.30;56.51;97119.22;2218229;26;20216;-64
2024/04/14 07:38:35;;;;;;;3.10;1.52;;;;;;;22.13;56.96;97122.47;2220739;26;20610;-64
2024/04/14 07:39:36;;;;;;;7.20;1.73;;;;;;;22.02;57.40;97121.56;2216784;26;20216;-64
2024/04/14 07:40:40;;;;;;;4.82;1.50;;;;;;;22.05;57.56;97124.94;2220283;26;20255;-64
2024/04/14 07:41:42;;;;;;;4.10;1.45;;;;;;;21.97;57.91;97128.25;2219302;26;20251;-64
2024/04/14 07:42:43;;;;;;;4.35;1.40;;;;;;;21.99;57.29;97120.97;2219696;26;20220;-64
2024/04/14 07:43:46;;;;;;;4.05;1.77;;;;;;;22.00;57.79;97127.97;2220408;26;20212;-64
2024/04/14 07:44:47;;;;;;;5.53;1.48;;;;;;;22.73;56.91;97128.03;2220178;26;20278;-64
2024/04/14 07:45:49;;;;;;;5.00;1.63;;;;;;;22.87;56.32;97126.84;2222771;26;20569;-64
2024/04/14 07:46:50;;;;;;;4.05;1.70;;;;;;;22.69;56.39;97117.78;2220937;26;20301;-64
2024/04/14 07:47:52;;;;;;;4.63;2.00;;;;;;;22.49;56.04;97123.03;2222361;26;20266;-64
2024/04/14 07:48:54;;;;;;;4.90;1.90;;;;;;;22.38;56.83;97121.28;2221452;26;20219;-64
2024/04/14 07:49:56;;;;;;;4.97;1.70;;;;;;;22.51;56.82;97121.06;2228206;26;20261;-64
2024/04/14 07:50:57;;;;;;;4.45;1.90;;;;;;;22.69;56.07;97112.47;2228116;26;20681;-64
2024/04/14 07:51:59;;;;;;;5.32;1.70;;;;;;;22.79;57.22;97126.66;2218888;26;20811;-64
2024/04/14 07:53:00;;;;;;;4.00;1.45;;;;;;;22.67;55.92;97125.91;2219827;26;20666;-65
2024/04/14 07:54:02;;;;;;;4.60;1.50;;;;;;;22.81;55.04;97119.38;2224505;26;20662;-65
2024/04/14 07:55:04;;;;;;;6.45;1.65;;;;;;;22.83;55.77;97112.97;2223685;26;20320;-64
2024/04/14 07:56:06;;;;;;;1.80;1.10;;;;;;;22.71;56.03;97127.31;2218800;26;20224;-64
2024/04/14 07:57:09;;;;;;;5.85;1.60;;;;;;;22.72;56.19;97120.19;2219791;26;20218;-64
2024/04/14 07:58:10;;;;;;;5.55;1.65;;;;;;;22.46;56.29;97118.81;2231287;26;20222;-64
2024/04/14 07:59:12;;;;;;;4.32;2.17;;;;;;;22.62;55.79;97123.63;2233475;26;20219;-64
2024/04/14 08:00:14;;;;;;;6.07;1.85;;;;;;;22.81;56.27;97125.53;2222140;26;20213;-63
2024/04/14 08:01:15;;;;;;;5.05;1.70;;;;;;;22.70;56.70;97125.63;2221224;26;20744;-63
2024/04/14 08:02:17;;;;;;;4.10;1.42;;;;;;;22.77;56.36;97128.63;2219494;26;20211;-63
2024/04/14 08:03:18;;;;;;;7.97;2.05;;;;;;;22.95;56.37;97124.34;2217127;26;20293;-63
2024/04/14 08:04:21;;;;;;;12.63;1.45;;;;;;;22.81;56.10;97125.53;2215623;26;20208;-63
2024/04/14 08:05:22;;;;;;;7.60;1.70;;;;;;;23.07;55.83;97118.91;2218060;26;20800;-64
2024/04/14 08:06:24;;;;;;;4.95;1.73;;;;;;;23.26;55.64;97119.00;2210981;26;20287;-64
2024/04/14 08:07:25;;;;;;;3.33;1.80;;;;;;;23.30;56.06;97119.59;2213276;26;20228;-63
2024/04/14 08:08:27;;;;;;;3.55;1.83;;;;;;;23.21;55.99;97118.59;2212769;26;20302;-63
2024/04/14 08:09:28;;;;;;;6.68;2.00;;;;;;;23.27;55.67;97123.38;2211127;26;20220;-63
2024/04/14 08:10:30;;;;;;;4.07;1.65;;;;;;;22.99;56.11;97120.44;2213382;26;20303;-63
2024/04/14 08:11:32;;;;;;;4.32;1.60;;;;;;;22.94;56.34;97120.00;2211913;26;20256;-63
2024/04/14 08:12:34;;;;;;;3.63;1.40;;;;;;;22.74;56.08;97123.56;2217356;26;20219;-63
2024/04/14 08:13:35;;;;;;;5.88;1.60;;;;;;;22.33;56.84;97126.09;2216402;26;20997;-63
2024/04/14 08:14:37;;;;;;;6.88;1.77;;;;;;;22.34;57.16;97120.66;2215273;26;20224;-63
2024/04/14 08:15:40;;;;;;;9.55;1.90;;;;;;;22.48;57.15;97116.00;2215319;26;20220;-63
2024/04/14 08:16:41;;;;;;;3.25;1.70;;;;;;;22.56;56.74;97118.00;2201659;26;20248;-63
2024/04/14 08:17:43;;;;;;;12.55;1.90;;;;;;;22.45;57.22;97126.94;2210017;26;20271;-64
2024/04/14 08:18:45;;;;;;;6.88;1.73;;;;;;;22.43;56.99;97116.41;2210868;26;20663;-64
2024/04/14 08:19:49;;;;;;;4.22;2.60;;;;;;;22.36;58.03;97131.19;2212510;26;20221;-63
2024/04/14 08:20:59;;;;;;;11.75;6.25;;;;;;;22.05;58.60;97116.97;2211904;26;20448;-63
2024/04/14 08:22:00;;;;;;;20.17;9.07;;;;;;;22.35;58.32;97125.00;2219778;26;20255;-63
2024/04/14 08:23:02;;;;;;;24.52;13.52;;;;;;;22.41;58.34;97125.47;2220816;26;20219;-63
2024/04/14 08:24:06;;;;;;;5.15;2.85;;;;;;;22.56;58.24;97118.00;2216424;26;20209;-63
2024/04/14 08:25:08;;;;;;;8.85;2.20;;;;;;;22.62;57.41;97117.47;2213053;26;20275;-63
2024/04/14 08:26:10;;;;;;;2.80;1.20;;;;;;;22.62;57.10;97117.47;2214823;26;20216;-63
2024/04/14 08:27:11;;;;;;;4.22;1.85;;;;;;;22.39;57.14;97125.63;2212806;26;20737;-63
2024/04/14 08:28:13;;;;;;;5.40;2.00;;;;;;;22.96;57.59;97122.53;2213245;26;20258;-63
2024/04/14 08:29:14;;;;;;;3.58;1.73;;;;;;;22.78;57.39;97117.00;2215976;26;20270;-63
2024/04/14 08:30:17;;;;;;;3.28;1.65;;;;;;;22.92;57.63;97113.97;2214423;26;20833;-63
2024/04/14 08:31:19;;;;;;;5.60;1.65;;;;;;;23.13;56.69;97121.03;2212871;26;20263;-63
2024/04/14 08:32:20;;;;;;;3.50;1.40;;;;;;;23.03;56.75;97114.84;2215391;26;20261;-63
2024/04/14 08:33:22;;;;;;;2.53;1.70;;;;;;;22.92;57.33;97119.28;2218949;26;20220;-63
2024/04/14 08:34:23;;;;;;;5.22;2.13;;;;;;;23.18;57.00;97118.00;2220800;26;20207;-63
2024/04/14 08:35:25;;;;;;;7.07;1.80;;;;;;;23.06;56.65;97104.75;2212176;26;20213;-64
2024/04/14 08:36:27;;;;;;;8.25;1.50;;;;;;;23.31;56.60;97123.91;2214926;26;20318;-64
2024/04/14 08:37:28;;;;;;;5.28;1.92;;;;;;;23.17;56.58;97124.31;2215283;26;20231;-63
2024/04/14 08:38:31;;;;;;;5.45;1.52;;;;;;;23.18;56.30;97121.50;2216359;26;20207;-63
2024/04/14 08:39:32;;;;;;;6.05;1.85;;;;;;;23.23;55.99;97119.28;2213972;26;20269;-64
2024/04/14 08:40:34;;;;;;;4.05;1.77;;;;;;;23.21;56.04;97113.25;2215053;26;20215;-63
2024/04/14 08:41:41;;;;;;;3.75;1.60;;;;;;;23.27;56.02;97117.19;2214201;26;20251;-63
2024/04/14 08:42:44;;;;;;;3.53;1.70;;;;;;;23.28;55.38;97111.72;2216103;26;20314;-64
2024/04/14 08:43:46;;;;;;;9.73;1.58;;;;;;;23.32;56.20;97114.94;2203023;26;20313;-64
2024/04/14 08:44:52;;;;;;;10.32;1.75;;;;;;;23.36;56.01;97112.84;2214464;26;20212;-62
2024/04/14 08:45:54;;;;;;;4.88;1.95;;;;;;;23.05;56.33;97119.06;2213382;26;20318;-64
2024/04/14 08:46:56;;;;;;;3.55;1.67;;;;;;;23.05;56.37;97120.88;2213135;26;20243;-64
2024/04/14 08:47:59;;;;;;;6.10;1.60;;;;;;;23.04;56.46;97116.53;2216250;26;20220;-63
2024/04/14 08:49:02;;;;;;;5.25;1.85;;;;;;;23.33;56.73;97127.28;2213028;26;20216;-64
2024/04/14 08:50:04;;;;;;;4.28;2.15;;;;;;;23.40;56.52;97122.25;2215162;26;20698;-65
2024/04/14 08:51:06;;;;;;;16.75;5.90;;;;;;;23.36;56.05;97119.00;2214187;26;20706;-63
2024/04/14 08:52:08;;;;;;;9.15;4.20;;;;;;;23.29;55.57;97117.91;2213758;26;20220;-63
2024/04/14 08:53:14;;;;;;;27.48;18.33;;;;;;;23.84;55.62;97113.88;2214035;26;20212;-66
2024/04/14 08:54:16;;;;;;;5.90;2.35;;;;;;;23.77;55.74;97125.09;2215030;26;20213;-66
2024/04/14 08:55:18;;;;;;;2.83;1.60;;;;;;;23.77;54.63;97109.13;2214988;26;20258;-66
2024/04/14 08:56:22;;;;;;;7.03;1.83;;;;;;;23.89;54.45;97112.47;2213580;26;20217;-67
2024/04/14 08:57:26;;;;;;;6.13;2.22;;;;;;;23.63;54.75;97109.53;2213054;26;20228;-64
2024/04/14 08:58:31;;;;;;;3.28;1.50;;;;;;;23.91;54.81;97104.34;2217491;26;20486;-64
2024/04/14 08:59:33;;;;;;;4.75;1.70;;;;;;;24.32;54.25;97118.34;2216831;26;20270;-64
2024/04/14 09:00:37;;;;;;;4.30;1.60;;;;;;;24.22;53.68;97113.03;2214382;26;20216;-65
2024/04/14 09:01:38;;;;;;;4.63;1.95;;;;;;;24.00;54.06;97113.34;2216418;26;20259;-64
2024/04/14 09:02:41;;;;;;;5.10;1.38;;;;;;;23.94;54.20;97115.59;2211537;26;20263;-64
2024/04/14 09:03:45;;;;;;;6.13;1.70;;;;;;;24.38;54.26;97117.78;2218799;26;20284;-67
2024/04/14 09:04:49;;;;;;;4.43;1.63;;;;;;;24.35;53.84;97112.72;2202987;26;20320;-64
2024/04/14 09:05:51;;;;;;;4.43;1.48;;;;;;;24.55;53.80;97108.19;2214830;26;20270;-65
2024/04/14 09:06:53;;;;;;;6.38;1.52;;;;;;;24.67;53.28;97113.38;2214033;26;20244;-64
2024/04/14 09:07:57;;;;;;;3.60;1.30;;;;;;;25.02;52.24;97114.50;2212757;26;20263;-62
2024/04/14 09:08:59;;;;;;;3.85;1.80;;;;;;;24.83;53.33;97116.25;2216795;26;20262;-63
2024/04/14 09:10:01;;;;;;;11.05;2.25;;;;;;;24.25;53.54;97114.56;2212899;26;20279;-65
2024/04/14 09:11:05;;;;;;;4.18;1.80;;;;;;;24.46;53.64;97117.06;2214757;26;20806;-64
2024/04/14 09:12:11;;;;;;;5.60;1.40;;;;;;;24.37;53.71;97108.09;2213595;26;20282;-66
2024/04/14 09:13:13;;;;;;;4.07;1.50;;;;;;;24.44;54.33;97111.88;2217079;26;20208;-67
2024/04/14 09:14:14;;;;;;;4.32;2.00;;;;;;;24.54;53.86;97111.81;2212785;26;20265;-67
2024/04/14 09:15:16;;;;;;;2.55;1.52;;;;;;;24.28;53.80;97107.13;2215972;26;20223;-67
2024/04/14 09:16:18;;;;;;;3.28;1.55;;;;;;;24.30;52.91;97104.31;2210228;26;20221;-69
2024/04/14 09:17:20;;;;;;;5.80;1.77;;;;;;;23.89;53.64;97111.63;2207709;26;20212;-69
2024/04/14 09:18:22;;;;;;;2.85;1.60;;;;;;;23.97;53.99;97103.78;2208119;26;20266;-70
2024/04/14 09:19:23;;;;;;;4.53;1.90;;;;;;;24.30;54.22;97104.31;2214159;26;21228;-70
2024/04/14 09:20:25;;;;;;;3.45;1.58;;;;;;;24.19;53.90;97116.00;2213504;26;20938;-70
2024/04/14 09:21:27;;;;;;;5.07;1.75;;;;;;;24.37;53.14;97104.59;2212178;26;20267;-70
2024/04/14 09:22:30;;;;;;;4.40;1.38;;;;;;;24.54;53.31;97103.81;2214550;26;20318;-70
2024/04/14 09:23:31;;;;;;;5.45;1.55;;;;;;;24.34;53.26;97104.88;2213772;26;20219;-70
2024/04/14 09:24:33;;;;;;;4.78;1.38;;;;;;;24.21;53.98;97114.00;2213843;26;20221;-70
2024/04/14 09:25:35;;;;;;;5.90;1.60;;;;;;;24.01;53.98;97105.22;2216269;26;20313;-70
2024/04/14 09:26:37;;;;;;;3.22;1.40;;;;;;;24.43;53.41;97104.84;2213795;26;20565;-69
2024/04/14 09:27:38;;;;;;;3.22;1.55;;;;;;;24.43;53.56;97114.69;2210431;26;20985;-70
2024/04/14 09:28:40;;;;;;;3.38;1.58;;;;;;;24.65;52.63;97099.34;2211396;26;20538;-69
2024/04/14 09:29:41;;;;;;;4.70;1.65;;;;;;;24.61;53.16;97107.59;2211736;26;20216;-71
2024/04/14 09:30:43;;;;;;;2.78;1.90;;;;;;;24.60;52.40;97111.25;2213204;26;20311;-70
2024/04/14 09:31:45;;;;;;;4.13;2.10;;;;;;;24.91;51.72;97097.69;2211129;26;20379;-69
2024/04/14 09:32:46;;;;;;;4.35;1.90;;;;;;;24.75;52.24;97106.31;2211355;26;20213;-69
2024/04/14 09:33:48;;;;;;;6.50;1.30;;;;;;;24.85;51.60;97111.63;2211493;26;20513;-70
2024/04/14 09:34:50;;;;;;;4.45;1.90;;;;;;;24.60;52.01;97108.59;2213691;26;20258;-70
2024/04/14 09:35:52;;;;;;;5.15;2.05;;;;;;;24.99;51.58;97109.44;2214127;26;20573;-70
2024/04/14 09:36:53;;;;;;;3.95;1.45;;;;;;;24.93;51.76;97106.38;2213289;26;20679;-71
2024/04/14 09:37:55;;;;;;;4.57;2.00;;;;;;;25.45;51.81;97112.19;2227840;26;20215;-71
2024/04/14 09:39:03;;;;;;;5.05;1.70;;;;;;;25.14;52.40;97110.66;2225593;26;20309;-72
2024/04/14 09:40:09;;;;;;;4.75;1.60;;;;;;;25.21;51.59;97108.22;2212474;26;20666;-72
2024/04/14 09:41:11;;;;;;;6.88;1.95;;;;;;;24.96;51.23;97112.41;2212428;26;20221;-71
2024/04/14 09:42:13;;;;;;;5.70;2.30;;;;;;;24.88;51.72;97107.81;2222008;26;20219;-71
2024/04/14 09:43:18;;;;;;;9.50;5.28;;;;;;;24.60;52.07;97102.41;2222011;26;20232;-70
2024/04/14 09:44:20;;;;;;;8.13;3.13;;;;;;;24.94;52.57;97104.56;2214990;26;20639;-71
2024/04/14 09:45:24;;;;;;;5.80;2.35;;;;;;;24.75;52.79;97103.66;2214763;26;20225;-72
2024/04/14 09:46:27;;;;;;;4.55;2.10;;;;;;;24.58;53.25;97107.91;2213613;26;20607;-71
2024/04/14 09:47:29;;;;;;;5.40;1.80;;;;;;;24.61;52.71;97107.59;2217848;26;20534;-71
2024/04/14 09:48:33;;;;;;;4.10;1.77;;;;;;;25.09;53.22;97102.25;2214351;26;20263;-71
2024/04/14 09:49:35;;;;;;;5.88;1.90;;;;;;;25.31;52.05;97103.66;2214127;26;20224;-69
2024/04/14 09:50:39;;;;;;;4.80;2.08;;;;;;;24.91;52.24;97105.69;2217151;26;20227;-70
2024/04/14 09:51:42;;;;;;;7.50;1.60;;;;;;;25.18;51.50;97103.16;2216536;26;20299;-70
2024/04/14 09:52:46;;;;;;;2.60;1.52;;;;;;;25.49;52.75;97110.91;2213657;26;20283;-69
2024/04/14 09:53:49;;;;;;;2.50;1.67;;;;;;;25.47;52.24;97095.00;2216135;26;20434;-68
2024/04/14 09:54:52;;;;;;;11.93;1.98;;;;;;;25.46;51.74;97096.00;2214519;26;20220;-70
2024/04/14 09:55:54;;;;;;;3.80;1.40;;;;;;;25.56;50.66;97094.09;2213502;26;20219;-68
2024/04/14 09:56:56;;;;;;;3.13;1.73;;;;;;;25.72;51.24;97101.41;2213707;26;20256;-69
2024/04/14 09:57:57;;;;;;;4.70;1.52;;;;;;;25.91;51.32;97096.91;2221685;26;20329;-69
2024/04/14 09:58:59;;;;;;;2.33;1.45;;;;;;;26.35;51.00;97096.13;2221915;26;20227;-69
2024/04/14 10:00:01;;;;;;;3.60;1.20;;;;;;;25.65;49.57;97094.16;2212497;26;20333;-68
2024/04/14 10:01:11;;;;;;;4.35;1.65;;;;;;;25.13;49.92;97094.75;2214307;26;20229;-69
2024/04/14 10:02:22;;;;;;;4.57;1.50;;;;;;;26.12;50.64;97096.63;2211624;26;20235;-69
2024/04/14 10:03:26;;;;;;;5.00;1.85;;;;;;;26.38;50.12;97099.28;2212452;26;20216;-66
2024/04/14 10:04:29;;;;;;;3.60;1.83;;;;;;;25.73;50.66;97094.25;2214597;26;20224;-67
2024/04/14 10:05:32;;;;;;;5.00;1.60;;;;;;;25.83;51.51;97091.50;2211829;26;20255;-68
2024/04/14 10:06:37;;;;;;;3.22;1.42;;;;;;;25.98;51.02;97094.44;2211441;26;20264;-66
2024/04/14 10:07:38;;;;;;;4.25;1.30;;;;;;;26.26;50.35;97089.88;2212856;26;20251;-66
2024/04/14 10:08:40;;;;;;;3.05;1.70;;;;;;;26.36;50.84;97093.28;2215269;26;20219;-67
2024/04/14 10:09:48;;;;;;;2.72;1.48;;;;;;;26.16;50.17;97091.81;2212578;26;20217;-66
2024/04/14 10:10:53;;;;;;;50.30;2.00;;;;;;;25.83;51.32;97089.66;2212287;26;20526;-66
2024/04/14 10:11:55;;;;;;;3.58;1.38;;;;;;;25.84;52.23;97093.16;2215357;26;20854;-67
2024/04/14 10:12:57;;;;;;;6.07;1.70;;;;;;;25.35;49.38;97094.34;2214432;26;20220;-66
2024/04/14 10:14:00;;;;;;;2.88;1.30;;;;;;;24.82;50.01;97087.03;2215676;26;20219;-65
2024/04/14 10:15:06;;;;;;;10.63;1.77;;;;;;;24.35;52.25;97085.22;2218985;26;20306;-66
2024/04/14 10:16:09;;;;;;;4.10;1.85;;;;;;;24.94;52.24;97092.03;2214738;26;20224;-66
2024/04/14 10:17:12;;;;;;;4.45;1.70;;;;;;;25.20;52.22;97082.50;2213612;26;20216;-65
2024/04/14 10:18:17;;;;;;;3.00;1.73;;;;;;;25.39;49.53;97086.91;2212377;26;20266;-65
2024/04/14 10:19:20;;;;;;;2.35;1.40;;;;;;;25.62;48.38;97081.94;2214422;26;20213;-63
2024/04/14 10:20:22;;;;;;;3.70;1.80;;;;;;;26.11;48.49;97086.91;2217844;26;20261;-64
2024/04/14 10:21:24;;;;;;;4.90;1.63;;;;;;;26.15;49.89;97088.25;2212312;26;20220;-64
2024/04/14 10:22:36;;;;;;;8.02;1.60;;;;;;;25.79;49.38;97082.09;2214506;26;20335;-64
2024/04/14 10:23:52;;;;;;;3.67;1.90;;;;;;;26.02;51.00;97085.13;2225753;26;20330;-64
2024/04/14 10:24:55;;;;;;;6.07;1.95;;;;;;;26.21;50.98;97082.28;2217682;26;20879;-64
2024/04/14 10:25:57;;;;;;;5.32;1.48;;;;;;;26.35;51.15;97075.53;2213483;26;20352;-64
2024/04/14 10:27:06;;;;;;;4.90;1.50;;;;;;;26.55;49.43;97069.94;2213728;26;20291;-64
2024/04/14 10:28:08;;;;;;;4.80;1.70;;;;;;;25.80;49.00;97073.06;2218009;26;20251;-64
2024/04/14 10:29:09;;;;;;;3.65;1.48;;;;;;;25.92;49.38;97077.19;2216110;26;20259;-64
2024/04/14 10:30:19;;;;;;;5.70;2.05;;;;;;;26.43;48.82;97069.38;2211554;26;20262;-64
2024/04/14 10:31:33;;;;;;;6.75;1.80;;;;;;;26.46;49.06;97071.75;2215347;26;20224;-63
2024/04/14 10:32:34;;;;;;;5.18;1.70;;;;;;;26.61;48.86;97068.47;2211296;26;20248;-65
2024/04/14 10:33:36;;;;;;;7.15;3.75;;;;;;;26.54;49.43;97074.47;2216916;26;20318;-65
2024/04/14 10:34:38;;;;;;;18.13;8.60;;;;;;;26.53;48.71;97072.78;2212291;26;20219;-64
2024/04/14 10:35:40;;;;;;;14.77;8.05;;;;;;;26.81;49.29;97072.63;2210216;26;20224;-64
2024/04/14 10:36:42;;;;;;;14.77;8.75;;;;;;;27.05;46.29;97057.66;2209655;26;20337;-64
2024/04/14 10:37:53;;;;;;;5.75;1.85;;;;;;;26.13;45.97;97066.19;2211773;26;20227;-64
2024/04/14 10:38:56;;;;;;;4.95;1.70;;;;;;;26.31;47.70;97063.47;2213372;26;21374;-64
2024/04/14 10:39:58;;;;;;;3.78;1.80;;;;;;;26.12;47.59;97058.31;2214145;26;20533;-64
2024/04/14 10:41:00;;;;;;;7.85;2.00;;;;;;;25.95;49.01;97060.81;2215469;26;20278;-62
2024/04/14 10:42:02;;;;;;;2.50;1.40;;;;;;;26.27;49.00;97064.78;2211542;26;20260;-64
2024/04/14 10:43:04;;;;;;;3.78;1.60;;;;;;;26.25;49.38;97066.78;2213402;26;20204;-63
2024/04/14 10:44:16;;;;;;;3.28;1.50;;;;;;;26.52;49.40;97059.56;2219353;26;20223;-63
2024/04/14 10:45:28;;;;;;;3.70;1.70;;;;;;;26.87;49.46;97058.59;2210925;26;20597;-62
2024/04/14 10:46:31;;;;;;;21.48;1.98;;;;;;;26.76;48.59;97055.38;2210269;26;20357;-62
2024/04/14 10:47:32;;;;;;;3.33;1.67;;;;;;;27.32;48.91;97051.19;2221220;26;20266;-61
2024/04/14 10:48:34;;;;;;;8.98;1.92;;;;;;;27.86;48.64;97048.09;2221658;26;20297;-61
2024/04/14 10:49:36;;;;;;;5.07;1.60;;;;;;;27.83;47.72;97053.81;2215012;26;20223;-61
2024/04/14 10:50:39;;;;;;;4.85;1.50;;;;;;;27.95;47.22;97046.25;2206837;26;20567;-61
2024/04/14 10:51:41;;;;;;;3.95;1.38;;;;;;;28.60;47.64;97049.00;2207782;26;20762;-61
2024/04/14 10:52:43;;;;;;;5.28;1.50;;;;;;;27.97;46.00;97048.75;2214780;26;20781;-61
2024/04/14 10:53:46;;;;;;;6.03;1.50;;;;;;;27.90;46.29;97045.09;2211862;26;20220;-61
2024/04/14 10:54:48;;;;;;;6.60;1.52;;;;;;;27.86;46.49;97036.53;2211654;26;20785;-61
2024/04/14 10:55:49;;;;;;;3.35;1.55;;;;;;;27.44;46.67;97045.53;2215175;26;20738;-61
2024/04/14 10:56:54;;;;;;;5.50;1.50;;;;;;;27.83;45.67;97044.91;2213843;26;20302;-61
2024/04/14 10:57:55;;;;;;;5.13;1.40;;;;;;;27.66;47.69;97049.44;2210770;26;20554;-61
2024/04/14 10:58:57;;;;;;;3.75;1.83;;;;;;;27.81;47.67;97045.06;2213657;26;20602;-61
2024/04/14 10:59:59;;;;;;;3.17;1.50;;;;;;;28.40;47.12;97046.69;2217736;26;20654;-61
2024/04/14 11:01:02;;;;;;;5.80;1.77;;;;;;;28.35;46.46;97043.69;2217032;26;20675;-61
2024/04/14 11:02:04;;;;;;;3.70;1.52;;;;;;;27.79;46.03;97041.69;2208770;26;20256;-61
2024/04/14 11:03:06;;;;;;;6.75;1.58;;;;;;;27.77;46.33;97042.88;2216911;26;20688;-61
2024/04/14 11:04:14;;;;;;;9.68;1.40;;;;;;;27.17;46.54;97042.09;2213758;26;20326;-61
2024/04/14 11:05:16;;;;;;;3.70;1.42;;;;;;;27.64;46.51;97043.38;2212884;26;20208;-60
2024/04/14 11:06:18;;;;;;;7.15;1.70;;;;;;;27.71;46.48;97036.34;2212412;26;20805;-61
2024/04/14 11:07:20;;;;;;;4.43;1.70;;;;;;;28.51;45.46;97032.91;2216589;26;20804;-60
2024/04/14 11:08:24;;;;;;;3.10;1.60;;;;;;;28.48;45.35;97033.25;2216102;26;20215;-61
2024/04/14 11:09:27;;;;;;;2.25;1.20;;;;;;;28.37;45.51;97028.25;2211999;26;20730;-61
2024/04/14 11:10:29;;;;;;;3.95;1.65;;;;;;;28.84;45.43;97035.50;2214557;26;20686;-61
2024/04/14 11:11:31;;;;;;;2.77;1.10;;;;;;;28.75;46.01;97036.56;2214054;26;20314;-61
2024/04/14 11:12:33;;;;;;;4.28;1.58;;;;;;;28.57;45.56;97027.84;2213229;26;20601;-61
2024/04/14 11:13:35;;;;;;;4.85;1.55;;;;;;;28.21;44.92;97030.97;2214540;26;20235;-60
2024/04/14 11:14:37;;;;;;;7.10;1.90;;;;;;;28.13;45.02;97029.97;2213158;26;20219;-60
2024/04/14 11:15:38;;;;;;;5.10;1.80;;;;;;;28.00;46.78;97027.78;2210938;26;20216;-61
2024/04/14 11:16:40;;;;;;;4.97;2.00;;;;;;;27.35;46.13;97025.88;2210326;26;20474;-61
2024/04/14 11:17:42;;;;;;;3.83;1.30;;;;;;;26.69;45.92;97034.56;2211472;26;20302;-61
2024/04/14 11:18:46;;;;;;;2.10;1.02;;;;;;;27.56;46.09;97019.25;2213545;26;20367;-60
2024/04/14 11:19:48;;;;;;;6.40;1.60;;;;;;;27.71;45.66;97025.63;2212389;26;20259;-61
2024/04/14 11:20:50;;;;;;;5.75;1.85;;;;;;;27.70;45.42;97027.44;2210184;26;20576;-61
2024/04/14 11:21:51;;;;;;;6.45;1.77;;;;;;;27.36;44.30;97025.75;2209323;26;20886;-60
2024/04/14 11:22:53;;;;;;;3.65;1.55;;;;;;;27.23;44.06;97027.22;2211490;26;20212;-61
2024/04/14 11:23:55;;;;;;;4.15;1.58;;;;;;;26.59;45.13;97028.47;2212016;26;20221;-60